Time;durP1;ratioP1;P1;durP2;ratioP2;P2;SDS_P1;SDS_P2;PMS_P1;PMS_P2;Temp;Humidity;BMP_temperature;BMP_pressure;BME280_temperature;BME280_humidity;BME280_pressure;Samples;Min_cycle;Max_cycle;Signal;HPM_P1;HPM_P2
2023/01/07 00:01:03;;;;;;;11.27;7.25;;;;;;;9.61;100.00;101595.69;4923933;29;20035;-62
2023/01/07 00:03:28;;;;;;;11.07;7.25;;;;;;;9.58;100.00;101594.72;4920714;29;20042;-62
2023/01/07 00:06:01;;;;;;;11.15;7.22;;;;;;;9.59;100.00;101593.00;4923266;29;20148;-63
2023/01/07 00:08:32;;;;;;;11.98;7.28;;;;;;;9.58;100.00;101592.09;4916706;29;20059;-63
2023/01/07 00:11:02;;;;;;;11.45;7.60;;;;;;;9.60;100.00;101586.09;4912808;29;20127;-63
2023/01/07 00:13:27;;;;;;;11.73;8.10;;;;;;;9.60;100.00;101579.16;4930213;29;20032;-62
2023/01/07 00:16:05;;;;;;;13.60;8.30;;;;;;;9.58;100.00;101580.81;4928671;29;20088;-62
2023/01/07 00:18:30;;;;;;;14.20;8.10;;;;;;;9.56;100.00;101583.38;4911377;29;20179;-62
2023/01/07 00:21:00;;;;;;;12.40;8.07;;;;;;;9.54;100.00;101582.44;4911259;29;20024;-63
2023/01/07 00:23:27;;;;;;;12.40;8.10;;;;;;;9.53;100.00;101578.03;4925488;29;20024;-62
2023/01/07 00:26:00;;;;;;;13.25;8.30;;;;;;;9.53;100.00;101580.66;4925165;29;20033;-63
2023/01/07 00:28:25;;;;;;;12.50;7.82;;;;;;;9.56;100.00;101582.50;4916193;29;20178;-62
2023/01/07 00:30:50;;;;;;;14.73;8.60;;;;;;;9.56;100.00;101575.56;4925663;29;20326;-62
2023/01/07 00:33:16;;;;;;;12.23;8.10;;;;;;;9.56;100.00;101574.69;4911971;29;20164;-62
2023/01/07 00:35:43;;;;;;;15.75;8.43;;;;;;;9.54;100.00;101561.63;4920115;29;20028;-62
2023/01/07 00:38:09;;;;;;;12.13;7.85;;;;;;;9.56;100.00;101562.56;4928527;29;20026;-62
2023/01/07 00:40:35;;;;;;;12.98;8.10;;;;;;;9.55;100.00;101552.97;4924762;29;20174;-62
2023/01/07 00:43:00;;;;;;;14.15;8.50;;;;;;;9.54;100.00;101558.13;4910797;29;20051;-63
2023/01/07 00:45:31;;;;;;;13.55;8.02;;;;;;;9.51;100.00;101552.78;4919257;29;20042;-62
2023/01/07 00:47:57;;;;;;;15.88;8.52;;;;;;;9.50;100.00;101559.72;4928791;29;20064;-63
2023/01/07 00:50:26;;;;;;;13.32;8.15;;;;;;;9.48;100.00;101555.28;4917338;29;20128;-62
2023/01/07 00:52:52;;;;;;;12.73;7.78;;;;;;;9.46;100.00;101547.41;4920581;29;20068;-62
2023/01/07 00:55:17;;;;;;;10.27;7.07;;;;;;;9.45;100.00;101558.63;4914595;29;20016;-62
2023/01/07 00:57:43;;;;;;;13.48;7.28;;;;;;;9.42;100.00;101544.63;4910654;29;20064;-68
2023/01/07 01:00:11;;;;;;;10.45;6.70;;;;;;;9.41;100.00;101541.13;4910559;29;20161;-68
2023/01/07 01:02:36;;;;;;;10.27;6.53;;;;;;;9.40;100.00;101542.84;4925702;29;20061;-68
2023/01/07 01:05:02;;;;;;;11.82;6.93;;;;;;;9.41;100.00;101541.13;4929370;29;20031;-68
2023/01/07 01:07:28;;;;;;;10.35;6.72;;;;;;;9.40;100.00;101535.06;4927942;29;20080;-68
2023/01/07 01:09:53;;;;;;;10.40;7.00;;;;;;;9.39;100.00;101527.19;4928596;29;20034;-68
2023/01/07 01:12:18;;;;;;;11.10;7.25;;;;;;;9.40;100.00;101521.16;4927861;29;20031;-68
2023/01/07 01:14:44;;;;;;;12.57;6.90;;;;;;;9.39;100.00;101522.00;4928430;29;20075;-68
2023/01/07 01:17:09;;;;;;;13.70;7.25;;;;;;;9.38;100.00;101528.91;4926711;29;20047;-68
2023/01/07 01:19:34;;;;;;;11.32;7.07;;;;;;;9.38;100.00;101522.81;4926693;29;20035;-68
2023/01/07 01:22:00;;;;;;;10.90;6.70;;;;;;;9.37;100.00;101510.63;4924071;29;20031;-68
2023/01/07 01:24:25;;;;;;;10.57;6.57;;;;;;;9.36;100.00;101507.13;4910048;29;20092;-68
2023/01/07 01:26:50;;;;;;;10.35;6.47;;;;;;;9.34;100.00;101507.91;4923753;29;20091;-68
2023/01/07 01:29:16;;;;;;;11.80;7.13;;;;;;;9.34;100.00;101506.22;4925188;29;20052;-68
2023/01/07 01:31:41;;;;;;;10.10;6.45;;;;;;;9.35;100.00;101500.16;4925995;29;20032;-68
2023/01/07 01:34:06;;;;;;;12.65;6.88;;;;;;;9.34;100.00;101507.91;4918586;29;20020;-68
2023/01/07 01:36:32;;;;;;;11.18;6.75;;;;;;;9.32;100.00;101501.78;4920946;29;20028;-68
2023/01/07 01:38:57;;;;;;;10.38;6.55;;;;;;;9.33;100.00;101498.34;4926972;29;20020;-68
2023/01/07 01:41:22;;;;;;;9.40;6.38;;;;;;;9.33;100.00;101498.34;4921312;29;20083;-68
2023/01/07 01:43:48;;;;;;;11.25;6.53;;;;;;;9.32;100.00;101499.16;4922769;29;20032;-68
2023/01/07 01:46:48;;;;;;;10.68;6.63;;;;;;;9.31;100.00;101500.91;4923171;29;20036;-68
2023/01/07 01:49:30;;;;;;;9.90;6.65;;;;;;;9.32;100.00;101505.25;4896217;29;20040;-68
2023/01/07 01:52:02;;;;;;;11.13;6.43;;;;;;;9.32;100.00;101502.66;4926642;29;20032;-68
2023/01/07 01:54:28;;;;;;;10.25;6.13;;;;;;;9.31;100.00;101508.69;4926950;29;20024;-68
2023/01/07 01:56:57;;;;;;;10.43;6.63;;;;;;;9.31;100.00;101502.59;4926946;29;20060;-62
2023/01/07 01:59:26;;;;;;;10.57;5.82;;;;;;;9.30;100.00;101508.59;4924927;29;20090;-63
2023/01/07 02:01:52;;;;;;;11.75;6.53;;;;;;;9.28;100.00;101502.47;4917099;29;20059;-62
2023/01/07 02:04:20;;;;;;;8.95;6.10;;;;;;;9.27;100.00;101503.28;4923604;29;20068;-63
2023/01/07 02:06:54;;;;;;;9.57;6.45;;;;;;;9.26;100.00;101504.13;4926686;29;20031;-62
2023/01/07 02:09:20;;;;;;;10.20;6.03;;;;;;;9.25;100.00;101497.16;4926975;29;20091;-63
2023/01/07 02:12:03;;;;;;;8.88;6.18;;;;;;;9.24;100.00;101504.06;4926190;29;20047;-63
2023/01/07 02:15:06;;;;;;;11.15;5.72;;;;;;;9.24;100.00;101501.47;4926693;29;20036;-62
2023/01/07 02:18:01;;;;;;;9.70;6.32;;;;;;;9.22;100.00;101506.63;4916690;29;20087;-62
2023/01/07 02:20:55;;;;;;;9.73;5.80;;;;;;;9.22;100.00;101496.22;4924484;29;20020;-62
2023/01/07 02:24:01;;;;;;;9.68;5.38;;;;;;;9.22;100.00;101493.63;4918052;29;20095;-62
2023/01/07 02:26:42;;;;;;;9.07;5.70;;;;;;;9.22;100.00;101490.09;4920608;29;20029;-68
2023/01/07 02:29:24;;;;;;;11.77;5.78;;;;;;;9.19;100.00;101484.78;4917082;29;20028;-68
2023/01/07 02:32:22;;;;;;;9.13;5.40;;;;;;;9.18;100.00;101490.81;4917109;29;20024;-68
2023/01/07 02:35:06;;;;;;;8.15;5.35;;;;;;;9.17;100.00;101495.13;4915761;29;20032;-68
2023/01/07 02:37:45;;;;;;;9.43;5.80;;;;;;;9.16;100.00;101490.75;4924992;29;20310;-68
2023/01/07 02:40:27;;;;;;;;;;;;;;;9.20;100.00;101491.78;4925131;29;20095;-68
2023/01/07 02:43:01;;;;;;;10.10;5.20;;;;;;;9.15;100.00;101496.81;4919555;29;19988;-68
2023/01/07 02:45:37;;;;;;;8.90;5.78;;;;;;;9.12;100.00;101485.38;4923217;29;20028;-68
2023/01/07 02:48:13;;;;;;;9.80;5.22;;;;;;;9.09;100.00;101486.13;4920195;29;20239;-68
2023/01/07 02:50:38;;;;;;;8.18;5.07;;;;;;;9.08;100.00;101484.38;4922255;29;20068;-68
2023/01/07 02:53:07;;;;;;;9.45;5.25;;;;;;;9.06;100.00;101483.41;4920434;29;20095;-68
2023/01/07 02:55:38;;;;;;;10.73;5.40;;;;;;;9.07;100.00;101481.69;4919640;29;20162;-68
2023/01/07 02:58:47;;;;;;;9.43;5.15;;;;;;;9.05;100.00;101481.63;4927803;29;20448;-68
2023/01/07 03:01:41;;;;;;;8.10;4.97;;;;;;;9.06;100.00;101475.63;4922791;29;20024;-68
2023/01/07 03:04:19;;;;;;;8.38;5.00;;;;;;;9.11;100.00;101475.78;4927090;29;20039;-68
2023/01/07 03:06:47;;;;;;;8.18;5.07;;;;;;;9.15;100.00;101469.88;4926997;29;20027;-68
2023/01/07 03:09:24;;;;;;;9.07;5.30;;;;;;;9.17;100.00;101468.25;4926970;29;20023;-68
2023/01/07 03:12:04;;;;;;;7.20;4.47;;;;;;;9.21;100.00;101460.63;4925494;29;20100;-68
2023/01/07 03:14:38;;;;;;;7.22;4.47;;;;;;;9.26;100.00;101459.94;4926280;29;20155;-68
2023/01/07 03:17:06;;;;;;;7.32;4.53;;;;;;;9.28;100.00;101455.66;4924842;29;20092;-68
2023/01/07 03:19:35;;;;;;;8.10;4.65;;;;;;;9.33;100.00;101452.41;4921326;29;20140;-68
2023/01/07 03:22:04;;;;;;;8.00;4.78;;;;;;;9.36;100.00;101454.25;4923705;29;20019;-68
2023/01/07 03:24:31;;;;;;;8.43;4.95;;;;;;;9.36;100.00;101454.25;4922313;29;20322;-68
2023/01/07 03:27:00;;;;;;;8.20;4.68;;;;;;;9.37;100.00;101448.19;4924701;29;20023;-68
2023/01/07 03:29:26;;;;;;;7.70;4.13;;;;;;;9.38;100.00;101439.56;4924688;29;20312;-68
2023/01/07 03:32:04;;;;;;;7.45;4.03;;;;;;;9.38;100.00;101434.38;4921983;29;20280;-68
2023/01/07 03:34:31;;;;;;;6.93;4.28;;;;;;;9.38;100.00;101437.88;4913596;29;20024;-68
2023/01/07 03:37:01;;;;;;;9.25;4.45;;;;;;;9.38;100.00;101431.78;4924587;29;20020;-68
2023/01/07 03:39:30;;;;;;;8.02;4.38;;;;;;;9.39;100.00;101433.56;4923388;29;20032;-68
2023/01/07 03:44:40;;;;;;;7.70;4.18;;;;;;;9.38;100.00;101431.78;4913382;29;20054;-68
2023/01/07 03:47:07;;;;;;;7.07;4.50;;;;;;;9.39;100.00;101433.56;4925650;29;20191;-68
2023/01/07 03:49:34;;;;;;;7.60;4.10;;;;;;;9.38;100.00;101427.47;4924673;29;20030;-68
2023/01/07 03:52:00;;;;;;;6.82;4.07;;;;;;;9.39;100.00;101417.94;4918954;29;20024;-68
2023/01/07 03:54:25;;;;;;;6.53;4.25;;;;;;;9.40;100.00;101412.81;4920235;29;20023;-68
2023/01/07 03:56:50;;;;;;;7.50;4.10;;;;;;;9.40;100.00;101410.19;4925044;29;20016;-62
2023/01/07 03:59:16;;;;;;;5.50;3.75;;;;;;;9.43;100.00;101412.03;4925706;29;20038;-62
2023/01/07 04:01:41;;;;;;;6.55;4.03;;;;;;;9.44;100.00;101400.78;4925347;29;20021;-62
2023/01/07 04:04:07;;;;;;;6.13;3.78;;;;;;;9.46;100.00;101412.16;4925154;29;20278;-62
2023/01/07 04:06:32;;;;;;;6.72;4.03;;;;;;;9.47;100.00;101411.34;4922567;29;20024;-62
2023/01/07 04:08:58;;;;;;;8.25;3.92;;;;;;;9.48;100.00;101399.19;4920507;29;20084;-63
2023/01/07 04:11:23;;;;;;;8.10;4.22;;;;;;;9.46;100.00;101393.94;4919282;29;20035;-62
2023/01/07 04:13:48;;;;;;;8.10;4.28;;;;;;;9.47;100.00;101397.41;4923052;29;20254;-63
2023/01/07 04:16:14;;;;;;;6.03;3.70;;;;;;;9.46;100.00;101393.94;4920944;29;20016;-62
2023/01/07 04:18:39;;;;;;;7.78;3.92;;;;;;;9.48;100.00;101384.47;4916175;29;20056;-62
2023/01/07 04:21:05;;;;;;;6.78;4.20;;;;;;;9.47;100.00;101377.50;4925314;29;20091;-62
2023/01/07 04:23:30;;;;;;;6.55;3.50;;;;;;;9.46;100.00;101386.13;4921435;29;20028;-63
2023/01/07 04:25:55;;;;;;;7.00;3.58;;;;;;;9.47;100.00;101368.81;4924431;29;20267;-62
2023/01/07 04:28:21;;;;;;;8.68;3.92;;;;;;;9.46;100.00;101367.94;4919750;29;20036;-68
2023/01/07 04:30:46;;;;;;;6.35;4.00;;;;;;;9.44;100.00;101359.16;4920874;29;20024;-68
2023/01/07 04:33:11;;;;;;;5.93;3.58;;;;;;;9.44;100.00;101359.16;4921423;29;20243;-68
2023/01/07 04:35:38;;;;;;;7.03;3.67;;;;;;;9.42;100.00;101366.03;4922363;29;20032;-68
2023/01/07 04:38:04;;;;;;;5.60;3.33;;;;;;;9.42;100.00;101366.03;4917572;29;20036;-68
2023/01/07 04:40:29;;;;;;;5.70;3.42;;;;;;;9.39;100.00;101359.00;4911406;29;20091;-68
2023/01/07 04:42:55;;;;;;;6.97;3.80;;;;;;;9.37;100.00;101363.28;4920004;29;20024;-68
2023/01/07 04:45:20;;;;;;;5.70;3.78;;;;;;;9.36;100.00;101355.44;4911365;29;20473;-68
2023/01/07 04:47:45;;;;;;;7.07;3.50;;;;;;;9.34;100.00;101357.97;4922961;29;20044;-68
2023/01/07 04:50:10;;;;;;;6.22;3.55;;;;;;;9.33;100.00;101353.59;4922377;29;20090;-68
2023/01/07 04:52:36;;;;;;;6.18;3.28;;;;;;;9.29;100.00;101349.09;4912362;29;20039;-68
2023/01/07 04:55:02;;;;;;;6.05;3.67;;;;;;;9.26;100.00;101346.38;4925368;29;20020;-68
2023/01/07 04:57:27;;;;;;;5.88;3.15;;;;;;;9.25;100.00;101338.53;4927682;29;20085;-68
2023/01/07 04:59:52;;;;;;;6.22;3.60;;;;;;;9.26;100.00;101345.50;4928132;29;20039;-68
2023/01/07 05:02:18;;;;;;;5.43;3.55;;;;;;;9.25;100.00;101343.72;4926015;29;20113;-68
2023/01/07 05:04:43;;;;;;;6.00;3.38;;;;;;;9.22;100.00;101337.59;4923658;29;20024;-68
2023/01/07 05:07:09;;;;;;;7.47;3.38;;;;;;;9.21;100.00;101340.13;4925957;29;20020;-68
2023/01/07 05:09:34;;;;;;;6.35;3.47;;;;;;;9.21;100.00;101335.81;4928351;29;20020;-68
2023/01/07 05:11:59;;;;;;;5.60;3.67;;;;;;;9.23;100.00;101336.75;4927537;29;20020;-68
2023/01/07 05:14:25;;;;;;;9.57;3.42;;;;;;;9.24;100.00;101332.47;4919729;29;20024;-68
2023/01/07 05:16:50;;;;;;;5.05;3.15;;;;;;;9.22;100.00;101324.59;4915896;29;20297;-68
2023/01/07 05:19:15;;;;;;;5.68;3.20;;;;;;;9.21;100.00;101327.13;4924315;29;20043;-68
2023/01/07 05:21:41;;;;;;;5.20;3.03;;;;;;;9.16;100.00;101324.34;4929019;29;20016;-68
2023/01/07 05:24:07;;;;;;;4.47;2.88;;;;;;;9.16;100.00;101324.34;4912885;29;20020;-68
2023/01/07 05:26:33;;;;;;;6.30;3.30;;;;;;;9.16;100.00;101324.34;4921513;29;20087;-63
2023/01/07 05:28:58;;;;;;;6.00;3.08;;;;;;;9.15;100.00;101320.00;4917933;29;20028;-62
2023/01/07 05:31:23;;;;;;;7.57;3.05;;;;;;;9.15;100.00;101316.50;4910200;29;20121;-62
2023/01/07 05:33:49;;;;;;;4.82;2.90;;;;;;;9.14;100.00;101322.53;4910061;29;20020;-62
2023/01/07 05:36:17;;;;;;;5.40;3.00;;;;;;;9.12;100.00;101317.25;4927923;29;20088;-63
2023/01/07 05:38:42;;;;;;;5.22;2.90;;;;;;;9.11;100.00;101317.22;4928622;29;20286;-62
2023/01/07 05:41:08;;;;;;;5.93;2.88;;;;;;;9.11;100.00;101320.72;4928810;29;20094;-63
2023/01/07 05:43:33;;;;;;;5.18;3.05;;;;;;;9.13;100.00;101320.78;4926351;29;20024;-63
2023/01/07 05:45:58;;;;;;;5.05;3.10;;;;;;;9.14;100.00;101318.22;4922949;29;20032;-62
2023/01/07 05:48:24;;;;;;;4.82;2.67;;;;;;;9.14;100.00;101312.13;4924164;29;20102;-62
2023/01/07 05:50:49;;;;;;;6.30;2.78;;;;;;;9.13;100.00;101311.25;4911971;29;20032;-62
2023/01/07 05:53:14;;;;;;;4.28;2.60;;;;;;;9.15;100.00;101304.41;4914574;29;20076;-62
2023/01/07 05:55:40;;;;;;;7.25;2.80;;;;;;;9.18;100.00;101306.22;4920162;29;20310;-62
2023/01/07 05:58:06;;;;;;;4.00;2.40;;;;;;;9.22;99.92;101306.41;4924834;29;20020;-68
2023/01/07 06:00:32;;;;;;;5.15;2.28;;;;;;;9.26;99.83;101301.31;4923316;29;20024;-68
2023/01/07 06:02:58;;;;;;;4.60;2.53;;;;;;;9.28;99.23;101302.25;4926078;29;20106;-68
2023/01/07 06:05:23;;;;;;;4.82;2.40;;;;;;;9.30;98.88;101297.97;4923820;29;20031;-68
2023/01/07 06:07:48;;;;;;;5.53;2.25;;;;;;;9.30;99.05;101293.66;4926092;29;20274;-68
2023/01/07 06:10:14;;;;;;;3.95;2.42;;;;;;;9.30;99.07;101298.88;4926995;29;20148;-68
2023/01/07 06:12:39;;;;;;;4.25;2.38;;;;;;;9.29;98.36;101284.09;4924902;29;20040;-68
2023/01/07 06:15:09;;;;;;;3.97;2.33;;;;;;;9.31;97.96;101294.53;4927259;29;20028;-68
2023/01/07 06:17:34;;;;;;;4.57;2.20;;;;;;;9.31;97.61;101278.94;4925794;29;20031;-68
2023/01/07 06:20:00;;;;;;;4.78;2.40;;;;;;;9.32;97.37;101273.78;4927259;29;20027;-68
2023/01/07 06:22:25;;;;;;;4.57;2.10;;;;;;;9.34;96.78;101273.84;4919106;29;20095;-68
2023/01/07 06:24:51;;;;;;;4.05;1.95;;;;;;;9.35;96.59;101283.44;4915238;29;20090;-68
2023/01/07 06:27:16;;;;;;;4.18;1.98;;;;;;;9.36;95.92;101272.19;4923352;29;20024;-68
2023/01/07 06:29:42;;;;;;;3.90;1.90;;;;;;;9.36;95.48;101270.47;4926361;29;20020;-68
2023/01/07 06:32:08;;;;;;;4.15;2.08;;;;;;;9.36;95.70;101270.47;4919650;29;20274;-68
2023/01/07 06:34:33;;;;;;;3.97;2.10;;;;;;;9.34;95.71;101247.84;4925134;29;20043;-68
2023/01/07 06:37:00;;;;;;;4.65;2.00;;;;;;;9.33;95.11;101257.38;4925071;29;20249;-68
2023/01/07 06:39:25;;;;;;;3.17;1.80;;;;;;;9.34;94.85;101260.84;4927749;29;20020;-68
2023/01/07 06:41:50;;;;;;;5.25;2.10;;;;;;;9.34;94.91;101256.53;4926812;29;20019;-68
2023/01/07 06:44:16;;;;;;;4.15;2.10;;;;;;;9.33;95.37;101259.97;4921467;29;20087;-68
2023/01/07 06:46:41;;;;;;;4.00;1.80;;;;;;;9.32;94.62;101252.13;4918228;29;20091;-68
2023/01/07 06:49:06;;;;;;;3.85;1.60;;;;;;;9.31;94.52;101248.63;4926805;29;20032;-68
2023/01/07 06:51:32;;;;;;;4.60;1.80;;;;;;;9.32;94.82;101247.78;4927300;29;20175;-68
2023/01/07 06:53:57;;;;;;;3.20;1.88;;;;;;;9.30;94.50;101251.16;4926569;29;20254;-68
2023/01/07 06:56:22;;;;;;;3.72;1.85;;;;;;;9.28;94.75;101245.03;4919911;29;20031;-68
2023/01/07 06:58:48;;;;;;;4.50;1.73;;;;;;;9.28;94.79;101242.44;4924249;29;20032;-68
2023/01/07 07:01:13;;;;;;;3.97;1.77;;;;;;;9.27;94.87;101249.34;4917908;29;20270;-68
2023/01/07 07:03:38;;;;;;;2.95;1.75;;;;;;;9.27;93.89;101245.84;4909024;29;20031;-68
2023/01/07 07:06:04;;;;;;;3.30;1.67;;;;;;;9.28;93.81;101239.81;4911709;29;20023;-68
2023/01/07 07:08:29;;;;;;;4.43;1.95;;;;;;;9.28;94.47;101239.81;4915211;29;20243;-68
2023/01/07 07:10:55;;;;;;;3.25;1.77;;;;;;;9.26;94.23;101239.78;4909754;29;20270;-68
2023/01/07 07:13:20;;;;;;;3.33;2.03;;;;;;;9.24;93.76;101231.06;4925491;29;20047;-68
2023/01/07 07:15:46;;;;;;;3.33;1.70;;;;;;;9.26;93.57;101225.91;4924642;29;20283;-68
2023/01/07 07:18:11;;;;;;;3.75;1.70;;;;;;;9.25;93.64;101222.41;4926055;29;20341;-68
2023/01/07 07:20:37;;;;;;;3.90;1.70;;;;;;;9.24;93.23;101218.06;4926507;29;20055;-68
2023/01/07 07:23:02;;;;;;;3.45;1.60;;;;;;;9.26;93.05;101218.97;4925788;29;20174;-68
2023/01/07 07:25:28;;;;;;;4.35;1.80;;;;;;;9.25;92.60;101221.53;4920161;29;20166;-68
2023/01/07 07:27:53;;;;;;;4.28;1.73;;;;;;;9.24;92.88;101218.06;4922444;29;20028;-68
2023/01/07 07:30:19;;;;;;;3.53;1.80;;;;;;;9.21;93.07;101213.63;4925441;29;20290;-68
2023/01/07 07:32:45;;;;;;;3.00;1.70;;;;;;;9.18;93.09;101220.41;4926148;29;20095;-68
2023/01/07 07:35:10;;;;;;;3.70;1.77;;;;;;;9.15;93.25;101213.41;4925378;29;20047;-68
2023/01/07 07:37:36;;;;;;;3.45;1.70;;;;;;;9.12;93.15;101213.28;4914673;29;20024;-68
2023/01/07 07:40:03;;;;;;;2.90;1.67;;;;;;;9.11;93.07;101214.13;4915826;29;20027;-68
2023/01/07 07:42:28;;;;;;;3.08;1.80;;;;;;;9.12;92.77;101208.06;4918909;29;20107;-68
2023/01/07 07:44:53;;;;;;;4.13;1.70;;;;;;;9.13;92.74;101204.66;4925547;29;20072;-68
2023/01/07 07:47:19;;;;;;;2.97;1.67;;;;;;;9.12;93.22;101208.06;4925049;29;20032;-68
2023/01/07 07:49:44;;;;;;;6.03;2.08;;;;;;;9.12;93.21;101205.47;4918348;29;20033;-68
2023/01/07 07:52:09;;;;;;;3.72;1.60;;;;;;;9.13;92.96;101204.66;4915815;29;20032;-68
2023/01/07 07:54:35;;;;;;;3.50;1.50;;;;;;;9.15;92.58;101200.41;4907900;29;20024;-69
2023/01/07 07:57:02;;;;;;;3.33;1.70;;;;;;;9.15;92.72;101194.31;4908757;29;20021;-68
2023/01/07 07:59:28;;;;;;;4.15;1.85;;;;;;;9.15;93.10;101194.31;4916046;29;20025;-68
2023/01/07 08:01:53;;;;;;;3.78;1.80;;;;;;;9.13;92.72;101193.38;4913148;29;20059;-68
2023/01/07 08:04:18;;;;;;;2.95;1.60;;;;;;;9.14;91.96;101183.03;4907664;29;20056;-68
2023/01/07 08:06:44;;;;;;;4.15;1.80;;;;;;;9.15;92.21;101187.41;4919633;29;20076;-68
2023/01/07 08:09:09;;;;;;;3.08;1.50;;;;;;;9.16;91.86;101181.38;4922496;29;20028;-68
2023/01/07 08:11:34;;;;;;;3.13;1.50;;;;;;;9.14;92.19;101176.94;4918366;29;20027;-68
2023/01/07 08:13:59;;;;;;;3.38;1.55;;;;;;;9.14;91.77;101175.25;4918113;29;20021;-68
2023/01/07 08:16:25;;;;;;;3.30;1.40;;;;;;;9.17;91.10;101179.66;4918769;29;20020;-68
2023/01/07 08:18:50;;;;;;;3.15;1.80;;;;;;;9.18;91.57;101177.13;4919420;29;20274;-68
2023/01/07 08:21:16;;;;;;;3.25;1.65;;;;;;;9.18;91.69;101179.72;4919010;29;20032;-69
2023/01/07 08:23:42;;;;;;;4.07;1.60;;;;;;;9.18;91.28;101171.91;4918545;29;20075;-69
2023/01/07 08:26:07;;;;;;;3.67;1.75;;;;;;;9.18;91.72;101179.72;4919396;29;20186;-69
2023/01/07 08:28:33;;;;;;;4.05;1.88;;;;;;;9.20;91.44;101172.84;4921276;29;20028;-69
2023/01/07 08:31:03;;;;;;;3.75;1.52;;;;;;;9.25;90.49;101169.53;4925164;29;20247;-69
2023/01/07 08:33:29;;;;;;;4.00;1.60;;;;;;;9.25;91.41;101162.59;4925245;29;20028;-69
2023/01/07 08:35:54;;;;;;;3.30;1.50;;;;;;;9.28;90.62;101165.28;4925625;29;20023;-69
2023/01/07 08:38:19;;;;;;;3.30;1.52;;;;;;;9.31;89.78;101164.53;4916252;29;20035;-69
2023/01/07 08:40:45;;;;;;;3.03;1.50;;;;;;;9.32;90.74;101163.69;4924344;29;20027;-69
2023/01/07 08:43:11;;;;;;;3.20;1.52;;;;;;;9.32;89.68;101161.97;4920463;29;20035;-68
2023/01/07 08:45:37;;;;;;;4.15;1.70;;;;;;;9.35;89.51;101156.88;4920470;29;20043;-68
2023/01/07 08:48:03;;;;;;;3.30;1.67;;;;;;;9.36;88.95;101158.66;4919759;29;20051;-68
2023/01/07 08:50:30;;;;;;;5.10;1.40;;;;;;;9.39;88.86;101157.88;4925345;29;20032;-68
2023/01/07 08:52:55;;;;;;;3.65;1.73;;;;;;;9.40;88.66;101157.91;4915925;29;20027;-70
2023/01/07 08:55:21;;;;;;;3.80;1.50;;;;;;;9.41;89.39;101161.38;4918618;29;20028;-68
2023/01/07 08:57:47;;;;;;;3.25;1.50;;;;;;;9.42;89.14;101152.78;4920729;29;20027;-68
2023/01/07 09:00:14;;;;;;;3.83;1.52;;;;;;;9.42;89.54;101155.38;4922057;29;20036;-69
2023/01/07 09:02:39;;;;;;;3.95;1.88;;;;;;;9.42;89.06;101151.91;4924888;29;20034;-69
2023/01/07 09:05:05;;;;;;;3.85;1.50;;;;;;;9.43;88.07;101151.94;4929276;29;20036;-68
2023/01/07 09:07:31;;;;;;;3.50;1.45;;;;;;;9.46;87.96;101146.84;4926958;29;20028;-67
2023/01/07 09:09:56;;;;;;;3.47;1.60;;;;;;;9.46;87.98;101144.25;4928383;29;20333;-69
2023/01/07 09:12:21;;;;;;;3.00;1.50;;;;;;;9.49;87.34;101133.94;4927082;29;20034;-69
2023/01/07 09:14:47;;;;;;;3.25;1.60;;;;;;;9.50;88.04;101134.81;4924289;29;20095;-68
2023/01/07 09:17:12;;;;;;;2.65;1.48;;;;;;;9.50;88.28;101140.00;4927982;29;20048;-69
2023/01/07 09:19:37;;;;;;;2.97;1.50;;;;;;;9.51;87.48;101132.25;4927913;29;20019;-69
2023/01/07 09:22:02;;;;;;;2.78;1.40;;;;;;;9.51;88.13;101127.03;4925921;29;20275;-69
2023/01/07 09:24:28;;;;;;;2.88;1.50;;;;;;;9.54;87.07;101127.16;4922605;29;20028;-69
2023/01/07 09:26:53;;;;;;;4.18;1.70;;;;;;;9.56;87.30;101122.03;4917901;29;20034;-70
2023/01/07 09:29:18;;;;;;;2.90;1.30;;;;;;;9.58;86.78;101126.41;4928711;29;20028;-69
2023/01/07 09:31:44;;;;;;;2.72;1.45;;;;;;;9.61;86.61;101124.75;4924444;29;20031;-69
2023/01/07 09:34:09;;;;;;;3.33;1.30;;;;;;;9.61;87.06;101116.97;4920654;29;20031;-69
2023/01/07 09:36:34;;;;;;;2.92;1.40;;;;;;;9.62;86.74;101116.13;4918799;29;20023;-62
2023/01/07 09:39:00;;;;;;;3.22;1.40;;;;;;;9.65;86.99;101119.69;4926004;29;20285;-62
2023/01/07 09:41:48;;;;;;;3.70;1.35;;;;;;;9.67;86.63;101104.13;4922322;29;20113;-62
2023/01/07 09:44:31;;;;;;;3.58;1.40;;;;;;;9.68;87.05;101096.38;4922514;29;20271;-62
2023/01/07 09:46:59;;;;;;;2.88;1.38;;;;;;;9.69;85.67;101099.84;4924025;29;20043;-62
2023/01/07 09:49:31;;;;;;;3.55;1.20;;;;;;;9.73;85.94;101096.50;4922407;29;20302;-62
2023/01/07 09:52:06;;;;;;;3.28;1.10;;;;;;;9.75;84.42;101100.06;4923424;29;20024;-62
2023/01/07 09:54:38;;;;;;;2.97;1.38;;;;;;;9.79;85.40;101085.41;4923715;29;20338;-63
2023/01/07 09:57:04;;;;;;;3.88;1.42;;;;;;;9.86;83.61;101088.28;4923502;29;20163;-62
2023/01/07 09:59:29;;;;;;;3.75;1.40;;;;;;;9.94;83.11;101072.00;4917875;29;20032;-62
2023/01/07 10:02:44;;;;;;;2.60;1.30;;;;;;;10.01;84.85;101072.22;4916796;29;20216;-63
2023/01/07 10:05:21;;;;;;;3.47;1.27;;;;;;;10.07;83.43;101081.94;4917318;29;20094;-62
2023/01/07 10:08:16;;;;;;;2.65;1.33;;;;;;;10.10;85.34;101066.41;4912157;29;20108;-68
2023/01/07 10:10:54;;;;;;;3.25;1.38;;;;;;;10.14;84.21;101067.34;4913893;29;20031;-69
2023/01/07 10:13:53;;;;;;;3.40;1.40;;;;;;;10.16;84.10;101056.16;4912377;29;20064;-68
2023/01/07 10:16:34;;;;;;;2.88;1.10;;;;;;;10.18;81.62;101044.06;4912174;29;20503;-68
2023/01/07 10:19:38;;;;;;;3.20;1.50;;;;;;;10.21;83.32;101033.75;4917722;29;20040;-68
2023/01/07 10:22:15;;;;;;;2.28;1.17;;;;;;;10.23;82.43;101021.63;4913169;29;20040;-68
2023/01/07 10:24:45;;;;;;;2.65;1.30;;;;;;;10.24;80.69;101022.53;4921873;29;20035;-68
2023/01/07 10:27:14;;;;;;;3.33;1.42;;;;;;;10.25;81.15;101024.28;4924603;29;20310;-68
2023/01/07 10:29:51;;;;;;;2.88;1.30;;;;;;;10.26;81.90;101016.50;4926557;29;20030;-68
2023/01/07 10:32:19;;;;;;;2.63;1.20;;;;;;;10.29;80.68;101014.84;4924790;29;20016;-68
2023/01/07 10:34:55;;;;;;;2.83;1.40;;;;;;;10.32;81.36;101001.91;4924246;29;20030;-68
2023/01/07 10:37:33;;;;;;;2.50;1.30;;;;;;;10.35;79.70;101004.63;4920811;29;20267;-62
2023/01/07 10:40:45;;;;;;;2.88;1.10;;;;;;;10.36;78.93;100996.84;4924414;29;20094;-62
2023/01/07 10:43:13;;;;;;;3.10;1.30;;;;;;;10.40;78.48;100982.19;4903915;29;20036;-61
2023/01/07 10:46:12;;;;;;;2.38;1.30;;;;;;;10.42;78.34;100985.69;4905230;29;20024;-62
2023/01/07 10:48:52;;;;;;;3.05;1.20;;;;;;;10.41;79.30;100982.22;4914417;29;20032;-62
2023/01/07 10:51:45;;;;;;;3.25;1.30;;;;;;;10.42;78.66;100965.72;4922511;29;20274;-62
2023/01/07 10:54:58;;;;;;;2.35;1.17;;;;;;;10.45;80.21;100970.16;4919624;29;20025;-62
2023/01/07 10:57:27;;;;;;;3.15;1.20;;;;;;;10.46;77.90;100958.00;4925848;29;20052;-62
2023/01/07 10:59:56;;;;;;;2.35;1.20;;;;;;;10.48;76.70;100951.13;4915327;29;20032;-62
2023/01/07 11:02:26;;;;;;;2.20;1.20;;;;;;;10.48;78.79;100951.13;4919966;29;20079;-63
2023/01/07 11:04:53;;;;;;;2.38;1.20;;;;;;;10.50;77.22;100952.03;4912514;29;20088;-62
2023/01/07 11:07:28;;;;;;;2.80;1.20;;;;;;;10.49;77.12;100948.56;4924566;29;20024;-68
2023/01/07 11:09:55;;;;;;;3.00;1.13;;;;;;;10.49;76.83;100952.91;4913335;29;20039;-68
2023/01/07 11:12:38;;;;;;;2.55;1.10;;;;;;;10.50;76.87;100937.31;4925321;29;20027;-68
2023/01/07 11:15:28;;;;;;;2.40;1.10;;;;;;;10.51;76.91;100945.97;4918943;29;20024;-68
2023/01/07 11:18:20;;;;;;;3.85;1.33;;;;;;;10.54;77.10;100922.59;4918378;29;20048;-67
2023/01/07 11:20:54;;;;;;;2.58;1.15;;;;;;;10.52;77.51;100938.19;4921977;29;20020;-68
2023/01/07 11:23:35;;;;;;;3.28;1.35;;;;;;;10.50;77.98;100918.16;4922176;29;20031;-68
2023/01/07 11:26:13;;;;;;;6.90;1.35;;;;;;;10.50;76.21;100921.66;4924452;29;20034;-67
2023/01/07 11:28:55;;;;;;;6.22;3.03;;;;;;;10.47;76.41;100911.19;4920657;29;20032;-68
2023/01/07 11:31:41;;;;;;;5.93;2.80;;;;;;;10.46;77.01;100898.97;4917098;29;20251;-68
2023/01/07 11:34:17;;;;;;;8.80;5.00;;;;;;;10.44;77.11;100890.22;4912904;29;20083;-68
2023/01/07 11:36:42;;;;;;;4.22;2.72;;;;;;;10.44;76.79;100892.84;4922630;29;20068;-68
2023/01/07 11:39:11;;;;;;;8.40;4.28;;;;;;;10.43;76.35;100891.97;4920616;29;20199;-67
2023/01/07 11:41:50;;;;;;;3.72;2.30;;;;;;;10.46;77.34;100887.66;4917502;29;20017;-68